首页
METAR-TAF:

METAR-TAF

机场 :

菲利普戈尔德森国际机场

伯利兹, 伯利兹

纬度: 17-32N, 经度: 088-18W, 海拔: 5米

当前天气观测

该预报发布于39分钟前的21:00 UTC
风速10节,风向北转西北
温度 26°C
湿度 74%
气压 1016 hPa
能见度10公里或以上
少量云层高于1800英尺
散云层高于4700英尺

METAR: MZBZ 152100Z 34010KT 9999 FEW018 SCT047 26/21 A3002 Q1016 RESHRA NOSIG RMK DIST SHWR-NW/SE

时间: 15:39 (21:39 UTC)

预报

该预报发布于6小时和39分钟前的15:00 UTC
预报有效从15日的 18点(UTC)到 16日的 18点(UTC)
风速10节,风向西转西北
能见度10公里或以上
散云层高于1500英尺
多云层高于3500英尺

TAF: MZBZ 151500Z 1518/1618 30010KT 9999 SCT015 BKN035

超过4000个机场的气象观测和天气预报(METAR&TAF报告)。

可查询的气象台以黄色和红色小点在地图上表示。

将鼠标移到小点上方,可查看气象台名称。

然后点击查看天气观测和预报。

如需切换地图:点击带黑十字的绿色按钮放大地图;点击带横线的绿色按钮缩小地图;或者点击绿色箭头查看邻近地区的地图。


METAR-TAF: